Dexter, Maine
Current Conditions -  °F | °C
As of 7:53 PM on Monday 22 Dec 2014 (Local Time) from KBGR Reporting Station
Overcast Overcast  
Wind Chill: 32°   Ceiling: 3500
Heat Index: 32°   Visibility: 10mi
Dew Point: 29°   Wind: 3mph
Humidity: 88%   Direction: 10°N
Pressure: 30.42"   Gusts: NA
Location:  45.02°N, 69.28°W
Report Text: KBGR 230053Z 01003KT 10SM SCT028 OVC035 00/M02 A3042 RMK AO2 PK WND 210134/0014 SLP303 T00001017
Loading
Personal Weather Stations






























Interactive Weather Map New forecast layout! Learn more

10-Day Weather Forecast

Advertisements
Track Severe Weather on mobile